logo
Search for airport 
image banner adimage banner adimage banner ad
image banner ad

SJVV - Fazenda Viviane

Located in Dueré, Brazil

ICAO - SJVV, IATA -

Data provided by Airmate  

General information

Coordinates: S11°24'43" W49°23'9"
Elevation is 734 feet MSL.
Magnetic variation is -21° East
View others Airports in Tocatins

Operational data

Special qualification required
Current time UTC:
Current local time:
Weather at : - ( 0 km )
METAR: PAUN 140541Z AUTO 23003KT 10SM FEW007 M05/M06 A3013 RMK AO2 FZRANO
View NOTAMs / SUP AIP / TFR affecting this airport [VIEW]
Communications frequencies: [VIEW]

Runways:

RWY identifierQFULength (ft)Width (ft)SurfaceLDA (ft)
11262566OTHER:SAI
29262566OTHER:SAI

Airport contact information

Address: Dueré Brazil

Satellite view of SJVV